sensor_id;sensor_type;location;lat;lon;timestamp;pressure;altitude;pressure_sealevel;temperature;humidity
75656;BME280;64252;51.094;13.714;2023-12-04T00:00:22;100898.56;;;8.78;40.28
75656;BME280;64252;51.094;13.714;2023-12-04T00:02:48;100902.88;;;8.13;41.15
75656;BME280;64252;51.094;13.714;2023-12-04T00:05:13;100907.59;;;8.09;41.63
75656;BME280;64252;51.094;13.714;2023-12-04T00:07:39;100909.38;;;8.02;41.90
75656;BME280;64252;51.094;13.714;2023-12-04T00:10:05;100910.91;;;7.99;41.70
75656;BME280;64252;51.094;13.714;2023-12-04T00:12:30;100911.09;;;8.34;41.24
75656;BME280;64252;51.094;13.714;2023-12-04T00:14:57;100907.72;;;8.28;40.85
75656;BME280;64252;51.094;13.714;2023-12-04T00:17:22;100909.66;;;8.40;40.81
75656;BME280;64252;51.094;13.714;2023-12-04T00:19:48;100907.69;;;8.13;40.72
75656;BME280;64252;51.094;13.714;2023-12-04T00:22:13;100909.63;;;7.97;41.52
75656;BME280;64252;51.094;13.714;2023-12-04T00:24:39;100903.03;;;8.32;40.64
75656;BME280;64252;51.094;13.714;2023-12-04T00:27:04;100903.28;;;8.43;40.60
75656;BME280;64252;51.094;13.714;2023-12-04T00:29:30;100899.63;;;8.27;40.72
75656;BME280;64252;51.094;13.714;2023-12-04T00:31:55;100899.84;;;8.34;40.90
75656;BME280;64252;51.094;13.714;2023-12-04T00:34:22;100892.03;;;8.59;40.19
75656;BME280;64252;51.094;13.714;2023-12-04T00:36:48;100881.50;;;8.40;40.52
75656;BME280;64252;51.094;13.714;2023-12-04T00:39:13;100876.53;;;8.06;40.85
75656;BME280;64252;51.094;13.714;2023-12-04T00:41:39;100873.06;;;8.40;40.19
75656;BME280;64252;51.094;13.714;2023-12-04T00:44:04;100878.44;;;8.45;40.29
75656;BME280;64252;51.094;13.714;2023-12-04T00:46:31;100872.41;;;8.62;39.67
75656;BME280;64252;51.094;13.714;2023-12-04T00:48:56;100882.19;;;7.78;41.48
75656;BME280;64252;51.094;13.714;2023-12-04T00:51:22;100881.84;;;8.23;40.58
75656;BME280;64252;51.094;13.714;2023-12-04T00:53:47;100883.78;;;8.34;40.63
75656;BME280;64252;51.094;13.714;2023-12-04T00:56:13;100877.31;;;8.34;40.39
75656;BME280;64252;51.094;13.714;2023-12-04T00:58:38;100880.06;;;8.30;40.51
75656;BME280;64252;51.094;13.714;2023-12-04T01:01:04;100859.91;;;8.44;40.07
75656;BME280;64252;51.094;13.714;2023-12-04T01:03:29;100868.97;;;8.53;39.68
75656;BME280;64252;51.094;13.714;2023-12-04T01:05:59;100874.09;;;8.04;40.61
75656;BME280;64252;51.094;13.714;2023-12-04T01:08:24;100876.19;;;8.07;41.00
75656;BME280;64252;51.094;13.714;2023-12-04T01:10:50;100873.97;;;8.01;40.69
75656;BME280;64252;51.094;13.714;2023-12-04T01:13:15;100872.91;;;7.62;41.68
75656;BME280;64252;51.094;13.714;2023-12-04T01:15:42;100889.91;;;8.09;40.68
75656;BME280;64252;51.094;13.714;2023-12-04T01:18:08;100880.47;;;8.17;40.73
75656;BME280;64252;51.094;13.714;2023-12-04T01:20:34;100887.75;;;8.33;39.60
75656;BME280;64252;51.094;13.714;2023-12-04T01:22:59;100890.84;;;8.01;40.69
75656;BME280;64252;51.094;13.714;2023-12-04T01:25:25;100898.63;;;7.91;40.67
75656;BME280;64252;51.094;13.714;2023-12-04T01:27:51;100889.94;;;7.97;40.64
75656;BME280;64252;51.094;13.714;2023-12-04T01:30:16;100895.22;;;7.98;40.42
75656;BME280;64252;51.094;13.714;2023-12-04T01:32:42;100895.94;;;7.95;40.50
75656;BME280;64252;51.094;13.714;2023-12-04T01:35:07;100886.94;;;7.89;40.63
75656;BME280;64252;51.094;13.714;2023-12-04T01:37:33;100895.28;;;7.86;40.74
75656;BME280;64252;51.094;13.714;2023-12-04T01:39:59;100900.84;;;7.98;40.29
75656;BME280;64252;51.094;13.714;2023-12-04T01:42:24;100899.09;;;7.93;40.19
75656;BME280;64252;51.094;13.714;2023-12-04T01:44:51;100894.97;;;7.75;40.47
75656;BME280;64252;51.094;13.714;2023-12-04T01:47:17;100890.75;;;7.97;40.10
75656;BME280;64252;51.094;13.714;2023-12-04T01:49:43;100885.97;;;7.70;40.51
75656;BME280;64252;51.094;13.714;2023-12-04T01:52:11;100896.81;;;7.83;40.48
75656;BME280;64252;51.094;13.714;2023-12-04T01:54:37;100886.97;;;7.49;41.01
75656;BME280;64252;51.094;13.714;2023-12-04T01:57:03;100885.38;;;7.76;40.35
75656;BME280;64252;51.094;13.714;2023-12-04T01:59:29;100883.50;;;7.68;40.28
75656;BME280;64252;51.094;13.714;2023-12-04T02:01:54;100875.69;;;7.34;40.96
75656;BME280;64252;51.094;13.714;2023-12-04T02:04:21;100886.03;;;7.58;40.47
75656;BME280;64252;51.094;13.714;2023-12-04T02:06:47;100881.50;;;7.53;41.08
75656;BME280;64252;51.094;13.714;2023-12-04T02:09:13;100875.13;;;7.84;40.18
75656;BME280;64252;51.094;13.714;2023-12-04T02:11:41;100876.78;;;7.57;40.61
75656;BME280;64252;51.094;13.714;2023-12-04T02:14:07;100870.75;;;7.71;40.66
75656;BME280;64252;51.094;13.714;2023-12-04T02:16:37;100856.47;;;7.91;40.33
75656;BME280;64252;51.094;13.714;2023-12-04T02:19:07;100852.50;;;7.37;41.60
75656;BME280;64252;51.094;13.714;2023-12-04T02:21:33;100842.81;;;7.22;41.98
75656;BME280;64252;51.094;13.714;2023-12-04T02:23:58;100858.72;;;7.58;40.95
75656;BME280;64252;51.094;13.714;2023-12-04T02:26:28;100853.47;;;7.84;40.26
75656;BME280;64252;51.094;13.714;2023-12-04T02:28:58;100841.31;;;7.25;41.72
75656;BME280;64252;51.094;13.714;2023-12-04T02:31:27;100848.84;;;7.09;41.78
75656;BME280;64252;51.094;13.714;2023-12-04T02:33:55;100841.63;;;6.83;42.55
75656;BME280;64252;51.094;13.714;2023-12-04T02:36:24;100842.53;;;6.99;41.68
75656;BME280;64252;51.094;13.714;2023-12-04T02:38:50;100839.38;;;7.41;41.36
75656;BME280;64252;51.094;13.714;2023-12-04T02:41:16;100838.00;;;6.71;42.62
75656;BME280;64252;51.094;13.714;2023-12-04T02:43:43;100835.06;;;7.59;41.01
75656;BME280;64252;51.094;13.714;2023-12-04T02:46:09;100826.28;;;7.33;41.26
75656;BME280;64252;51.094;13.714;2023-12-04T02:48:35;100821.78;;;7.16;41.37
75656;BME280;64252;51.094;13.714;2023-12-04T02:51:02;100817.94;;;7.09;41.88
75656;BME280;64252;51.094;13.714;2023-12-04T02:53:27;100805.06;;;7.20;41.68
75656;BME280;64252;51.094;13.714;2023-12-04T02:55:53;100806.56;;;6.65;42.23
75656;BME280;64252;51.094;13.714;2023-12-04T02:58:18;100800.34;;;7.24;41.70
75656;BME280;64252;51.094;13.714;2023-12-04T03:00:44;100798.19;;;7.61;41.23
75656;BME280;64252;51.094;13.714;2023-12-04T03:03:10;100785.56;;;7.55;40.56
75656;BME280;64252;51.094;13.714;2023-12-04T03:05:35;100788.66;;;6.82;41.80
75656;BME280;64252;51.094;13.714;2023-12-04T03:08:01;100791.34;;;7.18;41.86
75656;BME280;64252;51.094;13.714;2023-12-04T03:10:26;100781.34;;;7.33;41.52
75656;BME280;64252;51.094;13.714;2023-12-04T03:12:52;100782.75;;;6.99;42.18
75656;BME280;64252;51.094;13.714;2023-12-04T03:15:17;100783.50;;;7.24;41.92
75656;BME280;64252;51.094;13.714;2023-12-04T03:17:43;100789.56;;;7.26;41.54
75656;BME280;64252;51.094;13.714;2023-12-04T03:20:09;100782.72;;;7.82;40.71
75656;BME280;64252;51.094;13.714;2023-12-04T03:22:36;100786.13;;;7.60;41.09
75656;BME280;64252;51.094;13.714;2023-12-04T03:25:02;100783.13;;;7.53;41.05
75656;BME280;64252;51.094;13.714;2023-12-04T03:27:28;100782.19;;;7.77;40.88
75656;BME280;64252;51.094;13.714;2023-12-04T03:29:53;100774.00;;;7.87;40.15
75656;BME280;64252;51.094;13.714;2023-12-04T03:32:19;100783.63;;;7.86;40.29
75656;BME280;64252;51.094;13.714;2023-12-04T03:34:45;100779.50;;;7.68;40.64
75656;BME280;64252;51.094;13.714;2023-12-04T03:37:10;100770.41;;;8.03;39.97
75656;BME280;64252;51.094;13.714;2023-12-04T03:39:37;100764.44;;;7.45;40.83
75656;BME280;64252;51.094;13.714;2023-12-04T03:42:03;100764.13;;;7.93;40.01
75656;BME280;64252;51.094;13.714;2023-12-04T03:44:28;100763.06;;;7.39;40.73
75656;BME280;64252;51.094;13.714;2023-12-04T03:46:54;100760.31;;;7.70;40.20
75656;BME280;64252;51.094;13.714;2023-12-04T03:49:19;100767.97;;;7.42;40.63
75656;BME280;64252;51.094;13.714;2023-12-04T03:51:45;100763.06;;;7.39;40.28
75656;BME280;64252;51.094;13.714;2023-12-04T03:54:10;100756.41;;;7.31;40.74
75656;BME280;64252;51.094;13.714;2023-12-04T03:56:36;100761.06;;;7.39;40.24
75656;BME280;64252;51.094;13.714;2023-12-04T03:59:02;100757.53;;;7.42;40.34
75656;BME280;64252;51.094;13.714;2023-12-04T04:01:27;100761.53;;;7.41;40.39
75656;BME280;64252;51.094;13.714;2023-12-04T04:03:53;100761.75;;;7.64;40.10
75656;BME280;64252;51.094;13.714;2023-12-04T04:06:18;100751.03;;;7.54;39.73
75656;BME280;64252;51.094;13.714;2023-12-04T04:08:44;100763.97;;;7.43;40.17
75656;BME280;64252;51.094;13.714;2023-12-04T04:11:09;100758.38;;;7.59;40.00
75656;BME280;64252;51.094;13.714;2023-12-04T04:13:35;100749.63;;;7.76;39.47
75656;BME280;64252;51.094;13.714;2023-12-04T04:16:00;100741.63;;;7.19;40.29
75656;BME280;64252;51.094;13.714;2023-12-04T04:18:26;100746.66;;;7.41;40.26
75656;BME280;64252;51.094;13.714;2023-12-04T04:20:51;100737.16;;;6.90;40.65
75656;BME280;64252;51.094;13.714;2023-12-04T04:23:17;100740.19;;;7.25;40.13
75656;BME280;64252;51.094;13.714;2023-12-04T04:25:42;100737.94;;;7.02;40.28
75656;BME280;64252;51.094;13.714;2023-12-04T04:28:08;100744.69;;;7.14;40.36
75656;BME280;64252;51.094;13.714;2023-12-04T04:30:33;100740.19;;;7.25;40.03
75656;BME280;64252;51.094;13.714;2023-12-04T04:32:59;100740.19;;;7.25;39.88
75656;BME280;64252;51.094;13.714;2023-12-04T04:35:24;100738.31;;;7.01;40.11
75656;BME280;64252;51.094;13.714;2023-12-04T04:37:50;100731.66;;;6.93;40.30
75656;BME280;64252;51.094;13.714;2023-12-04T04:40:15;100729.06;;;7.00;40.20
75656;BME280;64252;51.094;13.714;2023-12-04T04:42:41;100725.84;;;6.74;40.70
75656;BME280;64252;51.094;13.714;2023-12-04T04:45:07;100723.22;;;6.93;40.21
75656;BME280;64252;51.094;13.714;2023-12-04T04:47:34;100712.25;;;6.88;40.53
75656;BME280;64252;51.094;13.714;2023-12-04T04:49:59;100714.66;;;7.02;39.65
75656;BME280;64252;51.094;13.714;2023-12-04T04:52:25;100714.84;;;6.81;40.46
75656;BME280;64252;51.094;13.714;2023-12-04T04:54:50;100703.88;;;6.76;40.53
75656;BME280;64252;51.094;13.714;2023-12-04T04:57:16;100711.44;;;6.48;40.67
75656;BME280;64252;51.094;13.714;2023-12-04T04:59:41;100711.47;;;6.76;40.72
75656;BME280;64252;51.094;13.714;2023-12-04T05:02:07;100721.25;;;6.54;40.95
75656;BME280;64252;51.094;13.714;2023-12-04T05:04:32;100722.66;;;6.48;41.27
75656;BME280;64252;51.094;13.714;2023-12-04T05:06:58;100718.94;;;6.32;41.04
75656;BME280;64252;51.094;13.714;2023-12-04T05:09:23;100716.81;;;6.53;41.04
75656;BME280;64252;51.094;13.714;2023-12-04T05:11:49;100721.16;;;6.78;41.21
75656;BME280;64252;51.094;13.714;2023-12-04T05:14:14;100722.47;;;6.81;40.91
75656;BME280;64252;51.094;13.714;2023-12-04T05:16:40;100717.38;;;7.42;39.72
75656;BME280;64252;51.094;13.714;2023-12-04T05:19:05;100726.63;;;7.42;40.12
75656;BME280;64252;51.094;13.714;2023-12-04T05:21:31;100723.78;;;7.70;39.38
75656;BME280;64252;51.094;13.714;2023-12-04T05:23:56;100719.34;;;7.85;39.27
75656;BME280;64252;51.094;13.714;2023-12-04T05:26:22;100716.59;;;8.04;38.65
75656;BME280;64252;51.094;13.714;2023-12-04T05:28:47;100715.25;;;7.82;39.68
75656;BME280;64252;51.094;13.714;2023-12-04T05:31:13;100712.50;;;8.02;39.34
75656;BME280;64252;51.094;13.714;2023-12-04T05:33:38;100701.91;;;7.48;39.90
75656;BME280;64252;51.094;13.714;2023-12-04T05:36:04;100692.97;;;7.30;40.61
75656;BME280;64252;51.094;13.714;2023-12-04T05:38:32;100680.22;;;7.33;41.12
75656;BME280;64252;51.094;13.714;2023-12-04T05:40:57;100680.50;;;7.43;40.75
75656;BME280;64252;51.094;13.714;2023-12-04T05:43:23;100676.75;;;7.24;41.39
75656;BME280;64252;51.094;13.714;2023-12-04T05:45:49;100669.09;;;7.52;40.92
75656;BME280;64252;51.094;13.714;2023-12-04T05:48:15;100671.28;;;6.99;42.17
75656;BME280;64252;51.094;13.714;2023-12-04T05:50:40;100657.31;;;7.46;41.47
75656;BME280;64252;51.094;13.714;2023-12-04T05:53:06;100648.63;;;7.67;40.90
75656;BME280;64252;51.094;13.714;2023-12-04T05:55:33;100640.63;;;7.54;41.46
75656;BME280;64252;51.094;13.714;2023-12-04T05:57:58;100632.72;;;7.59;41.58
75656;BME280;64252;51.094;13.714;2023-12-04T06:00:24;100626.75;;;7.76;41.23
75656;BME280;64252;51.094;13.714;2023-12-04T06:02:50;100622.19;;;8.38;40.08
75656;BME280;64252;51.094;13.714;2023-12-04T06:05:16;100624.41;;;8.67;39.03
75656;BME280;64252;51.094;13.714;2023-12-04T06:07:42;100626.53;;;8.35;39.64
75656;BME280;64252;51.094;13.714;2023-12-04T06:10:07;100623.69;;;8.51;39.36
75656;BME280;64252;51.094;13.714;2023-12-04T06:12:33;100625.69;;;8.51;39.35
75656;BME280;64252;51.094;13.714;2023-12-04T06:14:59;100622.16;;;8.96;39.05
75656;BME280;64252;51.094;13.714;2023-12-04T06:17:26;100622.19;;;7.87;40.18
75656;BME280;64252;51.094;13.714;2023-12-04T06:19:53;100623.31;;;7.52;40.90
75656;BME280;64252;51.094;13.714;2023-12-04T06:22:19;100615.94;;;7.16;42.15
75656;BME280;64252;51.094;13.714;2023-12-04T06:24:47;100611.44;;;7.42;42.47
75656;BME280;64252;51.094;13.714;2023-12-04T06:27:17;100610.72;;;8.12;40.51
75656;BME280;64252;51.094;13.714;2023-12-04T06:29:47;100616.41;;;7.18;41.59
75656;BME280;64252;51.094;13.714;2023-12-04T06:32:13;100613.56;;;6.86;42.71
75656;BME280;64252;51.094;13.714;2023-12-04T06:34:38;100610.72;;;7.77;41.26
75656;BME280;64252;51.094;13.714;2023-12-04T06:37:09;100608.63;;;6.40;42.83
75656;BME280;64252;51.094;13.714;2023-12-04T06:39:37;100612.13;;;7.08;42.00
75656;BME280;64252;51.094;13.714;2023-12-04T06:42:04;100614.81;;;6.89;42.12
75656;BME280;64252;51.094;13.714;2023-12-04T06:44:30;100618.13;;;8.20;40.19
75656;BME280;64252;51.094;13.714;2023-12-04T06:47:00;100614.78;;;7.79;40.56
75656;BME280;64252;51.094;13.714;2023-12-04T06:49:30;100619.84;;;7.89;40.39
75656;BME280;64252;51.094;13.714;2023-12-04T06:51:59;100619.47;;;7.13;39.83
75656;BME280;64252;51.094;13.714;2023-12-04T06:54:25;100623.06;;;7.57;40.57
75656;BME280;64252;51.094;13.714;2023-12-04T06:56:50;100617.16;;;7.46;41.01
75656;BME280;64252;51.094;13.714;2023-12-04T06:59:17;100620.00;;;7.97;39.00
75656;BME280;64252;51.094;13.714;2023-12-04T07:01:43;100602.78;;;8.71;38.30
75656;BME280;64252;51.094;13.714;2023-12-04T07:04:08;100613.66;;;8.00;39.54
75656;BME280;64252;51.094;13.714;2023-12-04T07:06:37;100615.50;;;9.04;38.00
75656;BME280;64252;51.094;13.714;2023-12-04T07:09:03;100617.47;;;7.91;38.93
75656;BME280;64252;51.094;13.714;2023-12-04T07:11:29;100609.53;;;9.09;37.83
75656;BME280;64252;51.094;13.714;2023-12-04T07:13:55;100611.03;;;7.91;38.85
75656;BME280;64252;51.094;13.714;2023-12-04T07:16:20;100607.22;;;7.99;40.32
75656;BME280;64252;51.094;13.714;2023-12-04T07:18:46;100610.63;;;8.08;39.02
75656;BME280;64252;51.094;13.714;2023-12-04T07:21:12;100598.56;;;8.43;39.20
75656;BME280;64252;51.094;13.714;2023-12-04T07:23:38;100602.44;;;8.19;38.93
75656;BME280;64252;51.094;13.714;2023-12-04T07:26:04;100601.19;;;8.01;38.99
75656;BME280;64252;51.094;13.714;2023-12-04T07:28:32;100597.22;;;7.51;40.37
75656;BME280;64252;51.094;13.714;2023-12-04T07:30:58;100593.50;;;7.98;39.47
75656;BME280;64252;51.094;13.714;2023-12-04T07:33:23;100594.25;;;7.94;39.91
75656;BME280;64252;51.094;13.714;2023-12-04T07:35:49;100586.94;;;7.74;40.04
75656;BME280;64252;51.094;13.714;2023-12-04T07:38:14;100592.41;;;7.52;40.14
75656;BME280;64252;51.094;13.714;2023-12-04T07:40:40;100602.44;;;6.62;41.96
75656;BME280;64252;51.094;13.714;2023-12-04T07:43:05;100600.75;;;7.32;40.27
75656;BME280;64252;51.094;13.714;2023-12-04T07:45:32;100596.41;;;7.50;40.19
75656;BME280;64252;51.094;13.714;2023-12-04T07:47:57;100600.88;;;6.49;41.44
75656;BME280;64252;51.094;13.714;2023-12-04T07:50:23;100604.56;;;7.24;40.59
75656;BME280;64252;51.094;13.714;2023-12-04T07:52:49;100585.94;;;6.45;42.76
75656;BME280;64252;51.094;13.714;2023-12-04T07:55:15;100596.69;;;6.71;41.69
75656;BME280;64252;51.094;13.714;2023-12-04T07:57:40;100590.69;;;7.00;41.98
75656;BME280;64252;51.094;13.714;2023-12-04T08:00:06;100585.16;;;7.19;40.30
75656;BME280;64252;51.094;13.714;2023-12-04T08:02:32;100580.00;;;7.53;40.26
75656;BME280;64252;51.094;13.714;2023-12-04T08:04:57;100593.00;;;8.11;39.04
75656;BME280;64252;51.094;13.714;2023-12-04T08:07:23;100589.69;;;8.25;38.72
75656;BME280;64252;51.094;13.714;2023-12-04T08:09:52;100587.56;;;7.83;40.03
75656;BME280;64252;51.094;13.714;2023-12-04T08:12:19;100589.16;;;8.19;38.35
75656;BME280;64252;51.094;13.714;2023-12-04T08:14:44;100587.66;;;6.93;40.71
75656;BME280;64252;51.094;13.714;2023-12-04T08:17:10;100576.44;;;8.41;38.47
75656;BME280;64252;51.094;13.714;2023-12-04T08:19:35;100572.78;;;8.41;38.15
75656;BME280;64252;51.094;13.714;2023-12-04T08:22:03;100579.66;;;8.24;39.03
75656;BME280;64252;51.094;13.714;2023-12-04T08:24:29;100581.69;;;8.08;39.50
75656;BME280;64252;51.094;13.714;2023-12-04T08:26:56;100566.22;;;8.33;38.33
75656;BME280;64252;51.094;13.714;2023-12-04T08:29:22;100577.88;;;8.73;38.65
75656;BME280;64252;51.094;13.714;2023-12-04T08:31:47;100573.94;;;8.78;37.40
75656;BME280;64252;51.094;13.714;2023-12-04T08:34:13;100575.97;;;9.00;37.13
75656;BME280;64252;51.094;13.714;2023-12-04T08:36:38;100581.69;;;9.49;36.36
75656;BME280;64252;51.094;13.714;2023-12-04T08:39:04;100578.25;;;8.72;37.50
75656;BME280;64252;51.094;13.714;2023-12-04T08:41:30;100573.97;;;8.59;37.36
75656;BME280;64252;51.094;13.714;2023-12-04T08:43:55;100577.97;;;8.58;38.81
75656;BME280;64252;51.094;13.714;2023-12-04T08:46:22;100573.91;;;8.55;38.30
75656;BME280;64252;51.094;13.714;2023-12-04T08:48:47;100565.13;;;8.22;38.55
75656;BME280;64252;51.094;13.714;2023-12-04T08:51:16;100579.56;;;9.20;37.07
75656;BME280;64252;51.094;13.714;2023-12-04T08:53:42;100578.56;;;8.48;38.48
75656;BME280;64252;51.094;13.714;2023-12-04T08:56:08;100573.84;;;8.52;37.92
75656;BME280;64252;51.094;13.714;2023-12-04T08:58:34;100573.09;;;8.20;39.18
75656;BME280;64252;51.094;13.714;2023-12-04T09:00:59;100567.81;;;7.64;39.51
75656;BME280;64252;51.094;13.714;2023-12-04T09:03:25;100573.91;;;8.36;38.76
75656;BME280;64252;51.094;13.714;2023-12-04T09:05:51;100557.28;;;8.12;38.85
75656;BME280;64252;51.094;13.714;2023-12-04T09:08:22;100572.00;;;8.24;39.46
75656;BME280;64252;51.094;13.714;2023-12-04T09:10:48;100563.31;;;8.91;37.74
75656;BME280;64252;51.094;13.714;2023-12-04T09:13:14;100562.88;;;7.92;38.98
75656;BME280;64252;51.094;13.714;2023-12-04T09:15:40;100569.31;;;8.47;38.03
75656;BME280;64252;51.094;13.714;2023-12-04T09:18:05;100562.88;;;8.47;38.40
75656;BME280;64252;51.094;13.714;2023-12-04T09:20:31;100558.22;;;9.19;37.50
75656;BME280;64252;51.094;13.714;2023-12-04T09:22:56;100562.28;;;8.38;38.62
75656;BME280;64252;51.094;13.714;2023-12-04T09:25:22;100561.16;;;9.49;36.42
75656;BME280;64252;51.094;13.714;2023-12-04T09:27:48;100557.69;;;9.13;37.52
75656;BME280;64252;51.094;13.714;2023-12-04T09:30:13;100556.59;;;9.67;36.87
75656;BME280;64252;51.094;13.714;2023-12-04T09:32:39;100554.75;;;9.52;36.83
75656;BME280;64252;51.094;13.714;2023-12-04T09:35:05;100545.72;;;8.17;38.70
75656;BME280;64252;51.094;13.714;2023-12-04T09:37:31;100546.56;;;9.43;37.14
75656;BME280;64252;51.094;13.714;2023-12-04T09:39:56;100543.38;;;9.45;36.77
75656;BME280;64252;51.094;13.714;2023-12-04T09:42:22;100545.22;;;8.69;37.78
75656;BME280;64252;51.094;13.714;2023-12-04T09:44:48;100545.28;;;10.16;36.68
75656;BME280;64252;51.094;13.714;2023-12-04T09:47:18;100537.56;;;8.89;38.13
75656;BME280;64252;51.094;13.714;2023-12-04T09:49:45;100534.66;;;10.09;36.84
75656;BME280;64252;51.094;13.714;2023-12-04T09:52:11;100522.44;;;9.46;37.32
75656;BME280;64252;51.094;13.714;2023-12-04T09:54:38;100528.03;;;9.68;37.09
75656;BME280;64252;51.094;13.714;2023-12-04T09:57:05;100517.28;;;9.25;37.17
75656;BME280;64252;51.094;13.714;2023-12-04T09:59:31;100510.38;;;9.00;38.02
75656;BME280;64252;51.094;13.714;2023-12-04T10:01:57;100499.59;;;9.28;37.71
75656;BME280;64252;51.094;13.714;2023-12-04T10:04:24;100486.94;;;8.92;38.46
75656;BME280;64252;51.094;13.714;2023-12-04T10:06:53;100481.75;;;9.69;37.04
75656;BME280;64252;51.094;13.714;2023-12-04T10:09:19;100482.59;;;10.33;35.97
75656;BME280;64252;51.094;13.714;2023-12-04T10:11:48;100472.06;;;9.70;36.13
75656;BME280;64252;51.094;13.714;2023-12-04T10:14:18;100474.06;;;10.26;35.93
75656;BME280;64252;51.094;13.714;2023-12-04T10:16:44;100471.41;;;10.10;35.32
75656;BME280;64252;51.094;13.714;2023-12-04T10:19:24;100476.59;;;9.00;37.26
75656;BME280;64252;51.094;13.714;2023-12-04T10:21:55;100467.16;;;10.24;36.37
75656;BME280;64252;51.094;13.714;2023-12-04T10:24:31;100472.25;;;9.85;36.99
75656;BME280;64252;51.094;13.714;2023-12-04T10:26:58;100455.06;;;9.37;37.56
75656;BME280;64252;51.094;13.714;2023-12-04T10:29:26;100458.78;;;9.71;36.75
75656;BME280;64252;51.094;13.714;2023-12-04T10:31:52;100446.41;;;9.00;37.61
75656;BME280;64252;51.094;13.714;2023-12-04T10:34:20;100447.78;;;9.62;37.82
75656;BME280;64252;51.094;13.714;2023-12-04T10:36:46;100450.25;;;8.89;38.30
75656;BME280;64252;51.094;13.714;2023-12-04T10:39:12;100444.31;;;9.73;36.94
75656;BME280;64252;51.094;13.714;2023-12-04T10:41:42;100446.94;;;10.18;36.19
75656;BME280;64252;51.094;13.714;2023-12-04T10:44:08;100435.31;;;11.66;33.77
75656;BME280;64252;51.094;13.714;2023-12-04T10:46:38;100438.31;;;10.78;35.29
75656;BME280;64252;51.094;13.714;2023-12-04T10:49:06;100435.34;;;9.11;37.24
75656;BME280;64252;51.094;13.714;2023-12-04T10:51:33;100441.50;;;9.20;37.29
75656;BME280;64252;51.094;13.714;2023-12-04T10:53:59;100421.72;;;8.90;37.93
75656;BME280;64252;51.094;13.714;2023-12-04T10:56:31;100432.31;;;9.49;36.81
75656;BME280;64252;51.094;13.714;2023-12-04T10:59:00;100417.84;;;10.91;35.27
75656;BME280;64252;51.094;13.714;2023-12-04T11:01:27;100422.28;;;10.48;35.22
75656;BME280;64252;51.094;13.714;2023-12-04T11:03:56;100422.53;;;10.36;34.96
75656;BME280;64252;51.094;13.714;2023-12-04T11:06:25;100412.78;;;9.37;36.88
75656;BME280;64252;51.094;13.714;2023-12-04T11:08:55;100419.13;;;10.17;35.53
75656;BME280;64252;51.094;13.714;2023-12-04T11:11:30;100410.31;;;9.92;36.52
75656;BME280;64252;51.094;13.714;2023-12-04T11:14:01;100403.22;;;10.05;36.21
75656;BME280;64252;51.094;13.714;2023-12-04T11:16:46;100407.16;;;9.37;36.62
75656;BME280;64252;51.094;13.714;2023-12-04T11:21:45;100388.41;;;10.48;35.32
75656;BME280;64252;51.094;13.714;2023-12-04T11:24:14;100376.81;;;9.01;37.53
75656;BME280;64252;51.094;13.714;2023-12-04T11:26:41;100369.34;;;10.05;36.15
75656;BME280;64252;51.094;13.714;2023-12-04T11:29:08;100377.22;;;9.89;36.40
75656;BME280;64252;51.094;13.714;2023-12-04T11:31:36;100369.34;;;10.05;35.31
75656;BME280;64252;51.094;13.714;2023-12-04T11:34:02;100364.44;;;10.76;34.99
75656;BME280;64252;51.094;13.714;2023-12-04T11:36:30;100359.13;;;10.27;35.38
75656;BME280;64252;51.094;13.714;2023-12-04T11:38:57;100361.16;;;9.93;36.37
75656;BME280;64252;51.094;13.714;2023-12-04T11:41:23;100351.84;;;9.89;35.84
75656;BME280;64252;51.094;13.714;2023-12-04T11:43:50;100344.47;;;9.47;36.45
75656;BME280;64252;51.094;13.714;2023-12-04T11:46:20;100339.09;;;8.79;37.81
75656;BME280;64252;51.094;13.714;2023-12-04T11:48:57;100331.34;;;8.99;37.21
75656;BME280;64252;51.094;13.714;2023-12-04T11:54:18;100315.16;;;9.89;35.81
75656;BME280;64252;51.094;13.714;2023-12-04T11:59:22;100311.81;;;10.53;34.77
75656;BME280;64252;51.094;13.714;2023-12-04T12:01:50;100297.53;;;9.99;35.89
75656;BME280;64252;51.094;13.714;2023-12-04T12:04:17;100299.56;;;10.35;34.90
75656;BME280;64252;51.094;13.714;2023-12-04T12:06:44;100292.25;;;9.94;35.21
75656;BME280;64252;51.094;13.714;2023-12-04T12:09:10;100290.91;;;9.81;36.35
75656;BME280;64252;51.094;13.714;2023-12-04T12:11:36;100285.78;;;10.78;34.95
75656;BME280;64252;51.094;13.714;2023-12-04T12:14:01;100285.72;;;10.23;35.08
75656;BME280;64252;51.094;13.714;2023-12-04T12:16:27;100281.16;;;10.11;35.90
75656;BME280;64252;51.094;13.714;2023-12-04T12:18:52;100284.31;;;10.47;34.87
75656;BME280;64252;51.094;13.714;2023-12-04T12:21:18;100266.88;;;10.89;34.61
75656;BME280;64252;51.094;13.714;2023-12-04T12:23:44;100267.84;;;10.52;34.83
75656;BME280;64252;51.094;13.714;2023-12-04T12:26:10;100264.53;;;10.03;35.74
75656;BME280;64252;51.094;13.714;2023-12-04T12:28:36;100265.06;;;10.60;34.82
75656;BME280;64252;51.094;13.714;2023-12-04T12:31:05;100273.63;;;10.23;34.96
75656;BME280;64252;51.094;13.714;2023-12-04T12:33:31;100255.84;;;10.19;35.42
75656;BME280;64252;51.094;13.714;2023-12-04T12:35:58;100258.69;;;9.82;36.39
75656;BME280;64252;51.094;13.714;2023-12-04T12:38:25;100253.97;;;10.33;34.95
75656;BME280;64252;51.094;13.714;2023-12-04T12:40:50;100254.56;;;9.72;35.76
75656;BME280;64252;51.094;13.714;2023-12-04T12:43:16;100248.03;;;10.05;35.47
75656;BME280;64252;51.094;13.714;2023-12-04T12:45:43;100255.03;;;10.18;35.95
75656;BME280;64252;51.094;13.714;2023-12-04T12:48:13;100245.50;;;10.33;34.86
75656;BME280;64252;51.094;13.714;2023-12-04T12:50:39;100252.28;;;10.25;35.16